Aviation Digital Data Service (ADDS)

Output produced by METARs form (1735 UTC 24 May 2016)
found at http://www.aviationweather.gov/adds/metars/
 
KSAV 241653Z 00000KT 10SM SCT050 SCT250 27/14 A3016 RMK AO2 SLP213 T02720144 $